New York, New York
Current Conditions -  °F | °C
As of 7:51 PM on Wednesday 26 Nov 2014 (Local Time) from KNYC Reporting Station
Light Rain Light Rain  
Wind Chill: -2°   Ceiling: 700
Heat Index:   Visibility: 3mi
Dew Point:   Wind: 8mph
Humidity: 89%   Direction: 350°N
Pressure: 29.82"   Gusts: NA
Location:  40.71°N, 74.01°W
Report Text: KNYC 270051Z AUTO 35007KT 3SM -RA BR OVC007 02/00 A2982 RMK AO2 UPB00E40RAB40 SLP089 P0004 T00170000 $
Loading
Personal Weather Stations






























Interactive Weather Map New forecast layout! Learn more

10-Day Weather Forecast

Advertisements
Track Severe Weather on mobile